Terminal Aerodrome Forecast
Issued by NWS Cleveland, OH

Home | Current Version | Previous Version | Text Only | Print | Product List | Glossary Off
Versions: 1 2 3 4 5 6 7 8 9 10 11 12 13

333
FTUS41 KCLE 211731
TAFTOL
TAF
KTOL 211731Z 2118/2218 28012G20KT P6SM SCT025 BKN035
     FM212200 29010KT P6SM SCT025 OVC040
      TEMPO 2123/2202 BKN025 OVC040
     FM220300 27005KT P6SM SCT040=

USA.gov is the U.S. government's official web portal to all federal, state and local government web resources and services.